Time;durP1;ratioP1;P1;durP2;ratioP2;P2;SDS_P1;SDS_P2;PMS_P1;PMS_P2;Temp;Humidity;BMP_temperature;BMP_pressure;BME280_temperature;BME280_humidity;BME280_pressure;Samples;Min_cycle;Max_cycle;Signal;HPM_P1;HPM_P2
2021/11/14 00:01:33;;;;;;;14.35;11.95;;;;;;;13.64;49.26;100826.54;1752282;80;21084;-68
2021/11/14 00:04:01;;;;;;;14.00;11.85;;;;;;;13.65;49.27;100827.37;1751295;80;21034;-67
2021/11/14 00:06:29;;;;;;;13.32;10.68;;;;;;;13.64;49.28;100829.72;1768270;80;21152;-66
2021/11/14 00:08:56;;;;;;;12.25;10.95;;;;;;;13.62;49.25;100830.34;1768468;80;21100;-67
2021/11/14 00:11:23;;;;;;;12.35;10.70;;;;;;;13.62;49.27;100833.02;1780325;80;22325;-67
2021/11/14 00:13:51;;;;;;;13.83;11.05;;;;;;;13.60;49.26;100835.02;1767668;80;21539;-66
2021/11/14 00:16:19;;;;;;;12.73;11.40;;;;;;;13.59;49.26;100831.52;1774161;80;21101;-67
2021/11/14 00:18:46;;;;;;;12.33;11.05;;;;;;;13.59;49.26;100832.02;1769455;80;21136;-67
2021/11/14 00:21:14;;;;;;;14.50;11.80;;;;;;;13.57;49.25;100836.18;1756056;80;21025;-66
2021/11/14 00:23:41;;;;;;;13.65;11.70;;;;;;;13.57;49.25;100834.34;1756155;80;21018;-66
2021/11/14 00:26:08;;;;;;;13.90;11.57;;;;;;;13.55;49.26;100826.99;1761089;80;20991;-67
2021/11/14 00:28:35;;;;;;;12.88;11.43;;;;;;;13.54;49.25;100826.67;1773232;80;21045;-65
2021/11/14 00:31:14;;;;;;;14.50;11.70;;;;;;;13.53;49.24;100825.48;1752212;80;21225;-67
2021/11/14 00:33:43;;;;;;;13.80;11.05;;;;;;;13.52;49.21;100820.66;1745979;80;21026;-66
2021/11/14 00:36:11;;;;;;;12.90;11.22;;;;;;;13.52;49.24;100818.46;1750471;80;21072;-67
2021/11/14 00:38:38;;;;;;;12.95;10.93;;;;;;;13.49;49.23;100818.30;1752637;80;21475;-66
2021/11/14 00:41:05;;;;;;;14.28;11.65;;;;;;;13.49;49.23;100814.80;1751083;80;21608;-65
2021/11/14 00:43:32;;;;;;;13.00;10.93;;;;;;;13.48;49.25;100817.98;1744450;80;21097;-65
2021/11/14 00:45:59;;;;;;;12.05;10.80;;;;;;;13.48;49.24;100809.11;1742481;80;21026;-65
2021/11/14 00:48:25;;;;;;;12.23;10.55;;;;;;;13.46;49.24;100806.63;1749990;80;21556;-66
2021/11/14 00:50:51;;;;;;;13.43;11.68;;;;;;;13.45;49.26;100806.27;1760101;80;21530;-65
2021/11/14 00:53:18;;;;;;;11.68;10.40;;;;;;;13.45;49.25;100808.95;1746719;80;21054;-66
2021/11/14 00:55:45;;;;;;;12.23;10.95;;;;;;;13.46;49.25;100807.10;1761124;80;21148;-66
2021/11/14 00:58:12;;;;;;;13.00;10.82;;;;;;;13.44;49.23;100809.92;1748474;80;21013;-66
2021/11/14 01:00:38;;;;;;;12.88;11.57;;;;;;;13.43;49.25;100804.27;1742146;80;21585;-66
2021/11/14 01:03:06;;;;;;;12.60;11.20;;;;;;;13.43;49.24;100810.11;1772040;80;21525;-66
2021/11/14 01:05:33;;;;;;;12.33;11.03;;;;;;;13.42;49.24;100809.76;1764750;80;21546;-66
2021/11/14 01:08:01;;;;;;;12.60;10.93;;;;;;;13.42;49.23;100813.77;1765627;80;21947;-66
2021/11/14 01:10:31;;;;;;;11.33;10.13;;;;;;;13.42;49.23;100812.42;1747735;80;21133;-67
2021/11/14 01:12:58;;;;;;;12.28;10.82;;;;;;;13.41;49.24;100810.77;1755691;80;21094;-67
2021/11/14 01:15:27;;;;;;;12.93;11.12;;;;;;;13.40;49.22;100812.58;1743922;80;21014;-67
2021/11/14 01:17:54;;;;;;;14.45;10.88;;;;;;;13.42;49.22;100811.09;1757082;80;21541;-66
2021/11/14 01:20:24;;;;;;;12.37;11.08;;;;;;;13.41;49.22;100813.44;1747121;80;21216;-66
2021/11/14 01:22:51;;;;;;;11.05;9.93;;;;;;;13.40;49.25;100807.75;1754586;80;21050;-66
2021/11/14 01:25:17;;;;;;;12.40;11.10;;;;;;;13.40;49.23;100808.58;1698692;81;21027;-66
2021/11/14 01:27:44;;;;;;;12.25;10.75;;;;;;;13.39;49.24;100814.10;1745089;80;21113;-67
2021/11/14 01:30:14;;;;;;;11.65;10.35;;;;;;;13.39;49.22;100809.59;1721519;82;21042;-66
2021/11/14 01:32:41;;;;;;;12.53;11.18;;;;;;;13.39;49.24;100817.59;1749013;80;21045;-66
2021/11/14 01:35:09;;;;;;;12.25;10.95;;;;;;;13.39;49.25;100810.92;1720525;82;21524;-67
2021/11/14 01:37:36;;;;;;;11.43;10.08;;;;;;;13.40;49.22;100811.75;1762049;80;21081;-66
2021/11/14 01:40:04;;;;;;;12.35;10.75;;;;;;;13.40;49.23;100810.42;1753580;80;21759;-66
2021/11/14 01:42:31;;;;;;;12.78;11.38;;;;;;;13.39;49.23;100809.59;1762789;80;21046;-66
2021/11/14 01:44:58;;;;;;;12.00;10.78;;;;;;;13.40;49.21;100805.91;1757374;80;21121;-66
2021/11/14 01:47:24;;;;;;;12.93;10.43;;;;;;;13.39;49.21;100806.92;1760645;80;21382;-66
2021/11/14 01:49:50;;;;;;;13.30;11.70;;;;;;;13.31;49.20;100793.55;1718565;82;21093;-66
2021/11/14 01:52:20;;;;;;;11.75;10.55;;;;;;;13.40;49.19;100807.75;1772678;80;21038;-66
2021/11/14 01:54:47;;;;;;;11.53;10.32;;;;;;;13.40;49.19;100806.41;1762758;79;21053;-66
2021/11/14 01:57:13;;;;;;;13.10;11.53;;;;;;;13.40;49.17;100807.24;1766202;80;21271;-66
2021/11/14 01:59:39;;;;;;;13.68;10.78;;;;;;;13.40;49.18;100801.08;1764668;80;21010;-67
2021/11/14 02:02:06;;;;;;;11.80;10.10;;;;;;;13.40;49.19;100811.75;1732515;82;21026;-67
2021/11/14 02:04:32;;;;;;;11.65;10.45;;;;;;;13.40;49.18;100810.42;1770459;80;21135;-66
2021/11/14 02:06:58;;;;;;;12.33;11.03;;;;;;;13.40;49.16;100812.58;1774660;80;21075;-66
2021/11/14 02:09:26;;;;;;;11.25;10.08;;;;;;;13.41;49.16;100814.77;1759882;80;21068;-66
2021/11/14 02:11:53;;;;;;;11.28;10.05;;;;;;;13.40;49.15;100813.91;1762149;80;21313;-66
2021/11/14 02:14:19;;;;;;;12.28;10.60;;;;;;;13.41;49.14;100811.60;1763349;80;21000;-66
2021/11/14 02:16:46;;;;;;;12.58;11.33;;;;;;;13.41;49.15;100807.59;1766595;80;21138;-66
2021/11/14 02:19:12;;;;;;;11.80;10.38;;;;;;;13.42;49.10;100809.25;1723479;81;22413;-67
2021/11/14 02:21:39;;;;;;;10.93;9.83;;;;;;;13.41;49.14;100809.44;1765908;80;21061;-67
2021/11/14 02:24:05;;;;;;;11.73;10.58;;;;;;;13.42;49.13;100819.09;1752657;80;21096;-67
2021/11/14 02:26:31;;;;;;;12.13;10.50;;;;;;;13.41;49.10;100816.94;1753342;80;21010;-66
2021/11/14 02:28:57;;;;;;;12.45;10.15;;;;;;;13.41;49.10;100818.27;1754536;80;21094;-66
2021/11/14 02:31:24;;;;;;;12.43;10.90;;;;;;;13.41;49.11;100814.77;1775770;80;21097;-66
2021/11/14 02:33:51;;;;;;;13.10;10.72;;;;;;;13.42;49.09;100822.59;1756653;80;21116;-66
2021/11/14 02:36:18;;;;;;;12.00;10.53;;;;;;;13.41;49.08;100816.11;1756849;80;21093;-66
2021/11/14 02:38:45;;;;;;;12.13;10.35;;;;;;;13.42;49.07;100817.77;1761815;80;21136;-66
2021/11/14 02:41:12;;;;;;;11.33;10.13;;;;;;;13.42;49.06;100821.27;1765640;80;21011;-66
2021/11/14 02:43:41;;;;;;;13.30;11.00;;;;;;;13.42;49.02;100821.77;1756955;80;21045;-65
2021/11/14 02:46:07;;;;;;;13.00;10.72;;;;;;;13.43;49.03;100826.13;1754662;80;21076;-66
2021/11/14 02:48:34;;;;;;;12.95;10.53;;;;;;;13.42;49.01;100819.92;1757688;80;21113;-65
2021/11/14 02:51:01;;;;;;;11.57;10.35;;;;;;;13.42;49.02;100820.44;1762637;80;21025;-66
2021/11/14 02:53:27;;;;;;;11.95;10.38;;;;;;;13.42;48.99;100815.92;1766931;80;21538;-66
2021/11/14 02:55:54;;;;;;;12.33;11.12;;;;;;;13.42;48.99;100817.77;1756637;80;21121;-67
2021/11/14 02:58:21;;;;;;;11.40;10.20;;;;;;;13.42;48.99;100817.77;1758379;80;21940;-66
2021/11/14 03:01:02;;;;;;;11.95;9.98;;;;;;;13.41;48.97;100819.61;1755614;80;21542;-67
2021/11/14 03:03:30;;;;;;;11.75;10.35;;;;;;;13.41;48.99;100814.27;1756430;79;20994;-65
2021/11/14 03:05:57;;;;;;;11.90;10.48;;;;;;;13.40;48.99;100816.58;1762860;80;21104;-65
2021/11/14 03:08:23;;;;;;;11.65;10.13;;;;;;;13.40;48.97;100812.58;1757729;80;21105;-65
2021/11/14 03:10:52;;;;;;;13.28;10.85;;;;;;;13.40;48.97;100812.58;1763866;80;21007;-67
2021/11/14 03:13:21;;;;;;;12.53;11.33;;;;;;;13.40;48.94;100819.25;1771649;80;21502;-66
2021/11/14 03:15:51;;;;;;;13.90;11.00;;;;;;;13.40;48.95;100813.91;1764493;80;21050;-67
2021/11/14 03:18:19;;;;;;;11.50;9.70;;;;;;;13.40;48.94;100813.09;1768241;80;21533;-66
2021/11/14 03:20:47;;;;;;;11.63;9.80;;;;;;;13.39;48.94;100809.59;1761957;80;21051;-65
2021/11/14 03:23:14;;;;;;;14.03;10.85;;;;;;;13.38;48.95;100803.90;1768551;80;21052;-66
2021/11/14 03:25:41;;;;;;;12.78;10.28;;;;;;;13.37;48.92;100807.08;1756094;80;21048;-67
2021/11/14 03:28:07;;;;;;;11.28;9.78;;;;;;;13.38;48.94;100803.90;1762797;80;21475;-66
2021/11/14 03:30:34;;;;;;;11.93;10.63;;;;;;;13.37;48.94;100801.73;1762919;80;21600;-66
2021/11/14 03:33:07;;;;;;;11.78;10.20;;;;;;;13.37;48.91;100803.07;1774626;80;21021;-66
2021/11/14 03:35:43;;;;;;;13.53;10.65;;;;;;;13.37;48.91;100804.91;1755200;80;21149;-67
2021/11/14 03:38:11;;;;;;;12.50;10.75;;;;;;;13.36;48.91;100805.39;1760481;80;21063;-66
2021/11/14 03:40:38;;;;;;;13.40;11.00;;;;;;;13.36;48.91;100806.72;1766509;80;21023;-66
2021/11/14 03:43:04;;;;;;;11.55;9.75;;;;;;;13.35;48.89;100802.91;1762403;80;21057;-66
2021/11/14 03:45:31;;;;;;;12.15;10.75;;;;;;;13.35;48.91;100806.40;1771971;80;21096;-67
2021/11/14 03:47:58;;;;;;;12.73;10.18;;;;;;;13.35;48.87;100806.91;1712652;82;21147;-65
2021/11/14 03:50:24;;;;;;;11.15;9.88;;;;;;;13.34;48.89;100806.05;1762323;80;21016;-65
2021/11/14 03:52:51;;;;;;;12.53;10.38;;;;;;;13.34;48.92;100806.05;1751611;80;21023;-66
2021/11/14 03:55:17;;;;;;;11.10;9.93;;;;;;;13.34;48.91;100806.55;1774116;80;21072;-65
2021/11/14 03:57:44;;;;;;;11.28;9.53;;;;;;;13.33;48.91;100812.40;1752306;80;21052;-66
2021/11/14 04:00:22;;;;;;;11.50;10.30;;;;;;;13.33;48.90;100811.58;1764897;80;21284;-65
2021/11/14 04:02:50;;;;;;;11.38;9.98;;;;;;;13.33;48.88;100814.24;1762471;80;21097;-67
2021/11/14 04:05:18;;;;;;;10.88;9.78;;;;;;;13.32;48.88;100808.55;1761635;80;21057;-66
2021/11/14 04:07:45;;;;;;;11.45;10.15;;;;;;;13.30;48.88;100806.03;1769175;80;21148;-65
2021/11/14 04:10:11;;;;;;;11.75;9.60;;;;;;;13.30;48.88;100809.21;1762683;80;21014;-65
2021/11/14 04:12:38;;;;;;;12.73;11.18;;;;;;;13.29;48.88;100803.48;1770726;80;21830;-66
2021/11/14 04:15:10;;;;;;;12.18;10.88;;;;;;;13.29;48.89;100807.48;1770049;80;21592;-66
2021/11/14 04:17:37;;;;;;;11.43;10.23;;;;;;;13.28;48.87;100812.00;1770594;79;21030;-67
2021/11/14 04:20:06;;;;;;;11.57;9.98;;;;;;;13.28;48.89;100808.50;1770782;80;21075;-66
2021/11/14 04:22:33;;;;;;;11.70;10.15;;;;;;;13.26;48.90;100812.66;1764358;80;21060;-65
2021/11/14 04:24:59;;;;;;;10.72;9.08;;;;;;;13.26;48.87;100803.32;1758629;80;21152;-66
2021/11/14 04:27:26;;;;;;;11.40;9.80;;;;;;;13.26;48.88;100807.83;1762340;80;21403;-67
2021/11/14 04:29:52;;;;;;;11.65;10.45;;;;;;;13.25;48.87;100809.67;1753218;80;21599;-66
2021/11/14 04:32:18;;;;;;;11.78;10.10;;;;;;;13.23;48.87;100804.98;1756086;80;21038;-67
2021/11/14 04:34:45;;;;;;;12.00;10.40;;;;;;;13.23;48.87;100810.33;1726365;81;21093;-67
2021/11/14 04:37:11;;;;;;;11.70;10.50;;;;;;;13.22;48.86;100809.97;1727282;82;21044;-67
2021/11/14 04:39:38;;;;;;;11.50;10.20;;;;;;;13.22;48.86;100805.14;1707655;82;21019;-67
2021/11/14 04:42:07;;;;;;;12.90;10.70;;;;;;;13.20;48.86;100800.47;1717649;82;21105;-66
2021/11/14 04:44:35;;;;;;;11.70;10.35;;;;;;;13.20;48.85;100800.47;1694117;83;21074;-65
2021/11/14 04:47:02;;;;;;;11.90;10.30;;;;;;;13.20;48.86;100796.46;1712424;83;21081;-67
2021/11/14 04:49:29;;;;;;;11.48;10.25;;;;;;;13.18;48.84;100794.78;1698190;83;21155;-67
2021/11/14 04:51:55;;;;;;;11.88;10.48;;;;;;;13.18;48.86;100793.95;1716349;83;21041;-66
2021/11/14 04:54:22;;;;;;;12.30;11.00;;;;;;;13.17;48.83;100796.27;1709129;81;21132;-65
2021/11/14 04:56:48;;;;;;;13.18;11.70;;;;;;;13.17;48.84;100795.79;1704200;81;21390;-66
2021/11/14 04:59:15;;;;;;;11.55;9.95;;;;;;;13.14;48.86;100797.43;1707225;83;21073;-68
2021/11/14 05:01:41;;;;;;;12.00;10.32;;;;;;;13.16;48.83;100803.44;1711625;83;21810;-66
2021/11/14 05:04:08;;;;;;;12.40;10.48;;;;;;;13.15;48.85;100804.45;1717537;83;21519;-65
2021/11/14 05:06:34;;;;;;;11.38;10.18;;;;;;;13.15;48.84;100808.45;1705361;83;21083;-66
2021/11/14 05:09:01;;;;;;;12.18;10.40;;;;;;;13.15;48.85;100811.13;1716163;83;21026;-66
2021/11/14 05:11:28;;;;;;;11.97;10.55;;;;;;;13.15;48.84;100816.93;1718186;83;21088;-66
2021/11/14 05:13:54;;;;;;;11.50;10.30;;;;;;;13.13;48.85;100810.45;1716827;83;21164;-67
2021/11/14 05:16:20;;;;;;;11.75;10.50;;;;;;;13.14;48.87;100817.44;1704514;83;21077;-66
2021/11/14 05:18:47;;;;;;;11.43;10.23;;;;;;;13.13;48.85;100814.45;1712817;82;21121;-66
2021/11/14 05:21:14;;;;;;;10.82;9.73;;;;;;;13.14;48.83;100825.95;1720336;82;21557;-67
2021/11/14 05:23:40;;;;;;;12.10;10.63;;;;;;;13.12;48.85;100822.09;1722435;80;21057;-66
2021/11/14 05:26:06;;;;;;;11.97;9.73;;;;;;;13.12;48.84;100825.27;1719538;82;21161;-66
2021/11/14 05:28:33;;;;;;;11.53;9.90;;;;;;;13.12;48.81;100827.94;1720565;82;21068;-67
2021/11/14 05:30:59;;;;;;;11.08;9.85;;;;;;;13.12;48.84;100836.77;1742891;81;21022;-67
2021/11/14 05:33:26;;;;;;;12.13;9.93;;;;;;;13.13;48.82;100836.27;1705752;83;22135;-66
2021/11/14 05:35:53;;;;;;;11.78;10.05;;;;;;;13.11;48.81;100832.41;1706599;83;21050;-66
2021/11/14 05:38:19;;;;;;;11.97;10.45;;;;;;;13.12;48.81;100834.61;1759516;80;21530;-66
2021/11/14 05:40:46;;;;;;;10.90;9.78;;;;;;;13.12;48.80;100832.77;1758601;80;21065;-66
2021/11/14 05:43:13;;;;;;;12.63;10.82;;;;;;;13.12;48.84;100838.61;1771634;80;21077;-67
2021/11/14 05:45:41;;;;;;;10.63;9.55;;;;;;;13.11;48.81;100840.92;1777837;80;21118;-66
2021/11/14 05:48:07;;;;;;;13.45;11.12;;;;;;;13.11;48.84;100838.26;1755570;80;21022;-66
2021/11/14 05:50:34;;;;;;;10.48;9.25;;;;;;;13.11;48.79;100846.26;1767499;80;21136;-66
2021/11/14 05:53:01;;;;;;;12.65;10.68;;;;;;;13.10;48.79;100853.44;1779334;80;21089;-66
2021/11/14 05:55:27;;;;;;;13.20;10.32;;;;;;;13.10;48.80;100856.10;1775969;79;21569;-65
2021/11/14 05:57:56;;;;;;;11.12;9.95;;;;;;;13.10;48.80;100850.77;1766218;80;21009;-66
2021/11/14 06:00:29;;;;;;;13.85;10.53;;;;;;;13.10;48.78;100852.10;1757015;80;21011;-65
2021/11/14 06:03:00;;;;;;;12.33;10.65;;;;;;;13.10;48.79;100855.27;1760938;80;21094;-66
2021/11/14 06:05:20;;;;;;;12.07;10.85;;;;;;;13.09;48.78;100858.41;1762546;80;21074;-66
2021/11/14 06:07:47;;;;;;;12.07;10.43;;;;;;;13.10;48.79;100859.28;1757506;80;21053;-66
2021/11/14 06:10:14;;;;;;;11.20;9.88;;;;;;;13.09;48.76;100858.41;1759879;80;21045;-66
2021/11/14 06:12:41;;;;;;;10.93;9.70;;;;;;;13.09;48.78;100861.08;1766148;80;21025;-66
2021/11/14 06:15:09;;;;;;;11.53;10.23;;;;;;;13.09;48.76;100862.42;1774934;80;21156;-67
2021/11/14 06:17:36;;;;;;;12.60;10.40;;;;;;;13.10;48.76;100861.44;1762523;80;21103;-67
2021/11/14 06:20:05;;;;;;;12.90;10.28;;;;;;;13.09;48.78;100859.75;1767668;80;21576;-66
2021/11/14 06:22:32;;;;;;;12.00;9.83;;;;;;;13.09;48.75;100866.92;1704343;83;21066;-66
2021/11/14 06:24:59;;;;;;;11.83;10.63;;;;;;;13.10;48.79;100864.61;1767946;79;21107;-67
2021/11/14 06:27:26;;;;;;;11.15;10.03;;;;;;;13.09;48.79;100866.42;1754419;80;21145;-66
2021/11/14 06:29:52;;;;;;;13.43;10.32;;;;;;;13.10;48.79;100869.95;1758884;80;21509;-67
2021/11/14 06:32:18;;;;;;;14.18;11.08;;;;;;;13.10;48.78;100870.77;1763414;80;21052;-67
2021/11/14 06:34:45;;;;;;;12.53;10.45;;;;;;;13.11;48.79;100862.27;1775720;80;21072;-66
2021/11/14 06:37:12;;;;;;;12.43;10.35;;;;;;;13.11;48.78;100869.77;1762641;80;21496;-67
2021/11/14 06:39:41;;;;;;;11.33;10.08;;;;;;;13.12;48.79;100867.95;1757269;80;21141;-67
2021/11/14 06:42:07;;;;;;;14.80;11.25;;;;;;;13.12;48.78;100859.45;1764562;80;21006;-66
2021/11/14 06:44:35;;;;;;;13.30;10.40;;;;;;;13.12;48.78;100858.11;1766746;80;22425;-66
2021/11/14 06:47:02;;;;;;;13.58;11.33;;;;;;;13.13;48.77;100863.80;1772082;80;21127;-66
2021/11/14 06:49:28;;;;;;;13.78;12.00;;;;;;;13.14;48.79;100867.30;1756107;80;21084;-66
2021/11/14 06:51:55;;;;;;;12.00;10.60;;;;;;;13.14;48.78;100870.80;1766228;80;21102;-66
2021/11/14 06:54:21;;;;;;;12.43;11.12;;;;;;;13.16;48.79;100865.31;1770649;80;21081;-66
2021/11/14 06:56:48;;;;;;;11.63;10.43;;;;;;;13.16;48.77;100872.81;1770894;80;21038;-66
2021/11/14 06:59:14;;;;;;;11.55;10.25;;;;;;;13.17;48.77;100875.83;1772981;80;21047;-67
2021/11/14 07:01:41;;;;;;;12.03;10.68;;;;;;;13.18;48.79;100876.16;1762443;79;21085;-66
2021/11/14 07:04:07;;;;;;;13.18;10.68;;;;;;;13.18;48.79;100872.16;1770752;80;21213;-65
2021/11/14 07:06:34;;;;;;;12.53;10.60;;;;;;;13.19;48.80;100874.31;1759902;79;21072;-65
2021/11/14 07:09:00;;;;;;;12.20;10.80;;;;;;;13.21;48.78;100876.83;1757413;80;21560;-66
2021/11/14 07:11:27;;;;;;;13.68;11.00;;;;;;;13.23;48.77;100877.52;1764681;79;21013;-65
2021/11/14 07:13:55;;;;;;;13.55;11.88;;;;;;;13.22;48.78;100871.85;1721874;81;21100;-66
2021/11/14 07:16:21;;;;;;;13.72;11.90;;;;;;;13.23;48.77;100869.50;1763310;80;21534;-65
2021/11/14 07:18:48;;;;;;;12.98;11.18;;;;;;;13.23;48.78;100869.03;1767738;80;21080;-66
2021/11/14 07:21:15;;;;;;;12.58;11.28;;;;;;;13.25;48.92;100873.71;1763813;80;21038;-66
2021/11/14 07:23:41;;;;;;;12.95;11.50;;;;;;;13.25;49.21;100867.04;1770767;80;21029;-67
2021/11/14 07:26:07;;;;;;;12.37;10.65;;;;;;;13.25;49.25;100870.19;1777831;80;21053;-66
2021/11/14 07:28:34;;;;;;;14.87;12.33;;;;;;;13.27;49.24;100868.19;1754451;79;21117;-68
2021/11/14 07:31:00;;;;;;;12.55;11.12;;;;;;;13.28;49.19;100864.55;1717858;82;21719;-66
2021/11/14 07:33:26;;;;;;;13.40;11.35;;;;;;;13.29;49.18;100864.86;1770635;80;21093;-66
2021/11/14 07:35:52;;;;;;;12.78;11.40;;;;;;;13.29;49.17;100860.86;1767008;80;21097;-66
2021/11/14 07:38:19;;;;;;;12.23;10.93;;;;;;;13.31;49.15;100864.27;1770930;80;21537;-67
2021/11/14 07:40:45;;;;;;;12.50;11.20;;;;;;;13.30;49.11;100863.41;1762559;80;21111;-68
2021/11/14 07:43:11;;;;;;;12.63;11.28;;;;;;;13.31;49.10;100865.09;1761035;80;20983;-66
2021/11/14 07:45:38;;;;;;;11.80;10.45;;;;;;;13.33;49.08;100867.61;1761754;80;21505;-66
2021/11/14 07:48:06;;;;;;;11.57;10.40;;;;;;;13.33;49.07;100864.44;1768264;80;21102;-66
2021/11/14 07:50:32;;;;;;;11.30;9.88;;;;;;;13.34;49.05;100866.60;1768982;80;21120;-67
2021/11/14 07:53:00;;;;;;;11.28;10.08;;;;;;;13.36;53.45;100861.94;1766007;79;21114;-66
2021/11/14 07:55:27;;;;;;;12.63;10.28;;;;;;;13.43;53.58;100866.16;1758508;80;21083;-67
2021/11/14 07:57:53;;;;;;;14.40;11.50;;;;;;;13.50;53.74;100868.03;1767301;80;21577;-66
2021/11/14 08:00:22;;;;;;;12.78;10.53;;;;;;;13.56;54.90;100868.73;1765439;80;21511;-64
2021/11/14 08:02:48;;;;;;;12.80;10.70;;;;;;;13.60;55.07;100868.39;1767387;80;21045;-66
2021/11/14 08:05:16;;;;;;;14.07;11.70;;;;;;;13.63;55.01;100864.08;1761410;80;21794;-64
2021/11/14 08:07:43;;;;;;;11.88;10.38;;;;;;;13.65;54.85;100866.08;1760787;80;21009;-66
2021/11/14 08:10:09;;;;;;;12.73;11.10;;;;;;;13.66;54.64;100864.59;1774493;80;21513;-64
2021/11/14 08:12:36;;;;;;;13.72;11.05;;;;;;;13.67;54.39;100858.75;1716981;82;21062;-63
2021/11/14 08:15:02;;;;;;;13.98;11.08;;;;;;;13.68;54.16;100855.92;1761821;80;21016;-64
2021/11/14 08:17:30;;;;;;;12.68;11.38;;;;;;;13.69;53.91;100858.91;1753474;80;21156;-65
2021/11/14 08:20:00;;;;;;;17.27;11.80;;;;;;;13.72;53.64;100861.78;1761890;80;21029;-65
2021/11/14 08:22:25;;;;;;;13.40;11.28;;;;;;;13.73;53.42;100855.42;1753071;80;21093;-64
2021/11/14 08:24:52;;;;;;;11.90;10.70;;;;;;;13.75;53.20;100853.42;1759795;80;21030;-64
2021/11/14 08:27:18;;;;;;;12.75;10.82;;;;;;;13.76;52.95;100839.92;1760159;80;21052;-65
2021/11/14 08:29:45;;;;;;;15.32;11.22;;;;;;;13.78;52.74;100849.11;1707484;82;21155;-65
2021/11/14 08:32:11;;;;;;;13.83;11.75;;;;;;;13.80;52.54;100844.44;1759363;80;21015;-65
2021/11/14 08:34:38;;;;;;;13.22;11.60;;;;;;;13.82;52.35;100847.78;1758918;79;21104;-65
2021/11/14 08:37:05;;;;;;;13.43;11.83;;;;;;;13.84;52.16;100840.44;1758818;80;21052;-66
2021/11/14 08:39:31;;;;;;;12.50;10.63;;;;;;;13.86;52.00;100841.12;1753302;80;21045;-65
2021/11/14 08:41:58;;;;;;;15.48;11.95;;;;;;;13.89;51.83;100842.14;1751069;80;21198;-65
2021/11/14 08:44:25;;;;;;;13.88;11.50;;;;;;;13.90;51.68;100838.45;1764581;80;21029;-66
2021/11/14 08:46:52;;;;;;;12.93;11.63;;;;;;;13.92;51.58;100834.29;1773049;80;21019;-65
2021/11/14 08:49:19;;;;;;;13.55;11.50;;;;;;;13.93;51.44;100834.13;1775011;80;21560;-65
2021/11/14 08:51:45;;;;;;;12.40;11.10;;;;;;;13.95;51.29;100833.98;1771909;79;21557;-63
2021/11/14 08:54:12;;;;;;;13.93;12.43;;;;;;;13.96;51.21;100837.83;1759809;80;21839;-66
2021/11/14 08:56:39;;;;;;;13.40;11.35;;;;;;;13.98;51.08;100833.63;1769869;80;21605;-66
2021/11/14 08:59:08;;;;;;;14.15;12.07;;;;;;;13.98;50.98;100834.97;1759464;80;21049;-67
2021/11/14 09:01:37;;;;;;;14.95;12.33;;;;;;;14.00;50.88;100833.47;1758224;80;21061;-66
2021/11/14 09:04:10;;;;;;;15.30;12.63;;;;;;;14.00;50.80;100830.80;1751474;80;21077;-71
2021/11/14 09:06:36;;;;;;;15.75;12.58;;;;;;;14.00;50.71;100834.30;1754503;80;21136;-69
2021/11/14 09:09:09;;;;;;;13.62;12.23;;;;;;;14.01;50.64;100834.65;1757259;80;21140;-69
2021/11/14 09:11:34;;;;;;;14.70;12.88;;;;;;;14.02;50.56;100835.48;1755509;80;21092;-67
2021/11/14 09:14:01;;;;;;;14.58;12.63;;;;;;;14.02;50.48;100827.46;1762402;80;21596;-68
2021/11/14 09:16:28;;;;;;;13.80;11.93;;;;;;;14.03;50.43;100826.48;1756540;80;21006;-69
2021/11/14 09:18:56;;;;;;;14.43;12.23;;;;;;;14.02;50.37;100830.96;1755403;80;21191;-69
2021/11/14 09:21:23;;;;;;;14.70;12.53;;;;;;;14.02;50.30;100821.61;1720764;82;21684;-68
2021/11/14 09:23:49;;;;;;;14.28;12.37;;;;;;;14.02;50.28;100836.81;1763789;80;21081;-68
2021/11/14 09:26:16;;;;;;;14.13;12.73;;;;;;;14.02;50.21;100832.80;1762968;80;21096;-68
2021/11/14 09:28:44;;;;;;;15.35;12.00;;;;;;;14.01;50.18;100832.48;1778138;80;21108;-68
2021/11/14 09:31:11;;;;;;;14.07;12.13;;;;;;;14.02;50.13;100828.80;1767897;80;21778;-68
2021/11/14 09:33:39;;;;;;;16.12;12.10;;;;;;;14.01;50.10;100823.14;1764006;79;21506;-68
2021/11/14 09:36:06;;;;;;;16.30;12.45;;;;;;;14.00;50.04;100818.78;1761032;80;21185;-68
2021/11/14 09:38:34;;;;;;;14.53;12.13;;;;;;;14.00;50.01;100820.11;1759431;80;21029;-68
2021/11/14 09:41:03;;;;;;;15.40;13.55;;;;;;;13.99;49.97;100815.28;1769079;80;21038;-69
2021/11/14 09:43:31;;;;;;;15.28;13.18;;;;;;;13.99;49.96;100813.12;1746814;80;21153;-69
2021/11/14 09:45:59;;;;;;;15.10;12.33;;;;;;;13.98;49.94;100804.75;1757687;80;21043;-69
2021/11/14 09:48:26;;;;;;;15.53;12.58;;;;;;;13.98;49.89;100809.59;1760052;80;21014;-70
2021/11/14 09:51:52;;;;;;;13.05;11.68;;;;;;;14.01;49.85;100807.94;1880782;75;28057;-68
2021/11/14 09:54:20;;;;;;;15.00;13.05;;;;;;;13.98;49.83;100808.25;1852667;77;20949;-69
2021/11/14 09:56:47;;;;;;;15.20;12.65;;;;;;;13.98;49.79;100803.41;1858334;77;21737;-69
2021/11/14 09:59:14;;;;;;;15.35;13.22;;;;;;;13.98;49.74;100806.09;1798498;79;21984;-69
2021/11/14 10:01:41;;;;;;;16.05;12.13;;;;;;;13.97;49.73;100803.92;1813602;78;21498;-68
2021/11/14 10:04:08;;;;;;;15.23;12.88;;;;;;;13.97;49.70;100803.92;1782611;79;21006;-68
2021/11/14 10:06:35;;;;;;;15.35;13.15;;;;;;;13.97;49.67;100801.25;1790702;78;20980;-68
2021/11/14 10:09:03;;;;;;;13.93;12.43;;;;;;;13.96;49.63;100793.75;1783926;79;21206;-68
2021/11/14 10:11:38;;;;;;;14.80;12.55;;;;;;;13.97;49.63;100786.56;1781344;80;20975;-68
2021/11/14 10:14:06;;;;;;;14.45;12.95;;;;;;;13.98;49.61;100786.05;1782954;78;21073;-68
2021/11/14 10:16:35;;;;;;;15.30;13.25;;;;;;;13.98;49.61;100791.39;1795100;79;21100;-68
2021/11/14 10:19:10;;;;;;;15.28;13.03;;;;;;;13.98;49.55;100787.39;1785397;79;21076;-68
2021/11/14 10:21:34;;;;;;;15.40;13.13;;;;;;;13.98;49.53;100781.53;1779220;79;21066;-69
2021/11/14 10:24:06;;;;;;;14.70;12.60;;;;;;;13.98;49.51;100789.55;1777093;79;21512;-69
2021/11/14 10:26:34;;;;;;;15.63;13.78;;;;;;;13.99;49.49;100790.41;1799201;79;21050;-69
2021/11/14 10:29:08;;;;;;;15.72;12.37;;;;;;;14.00;49.46;100788.05;1805511;79;21084;-68
2021/11/14 10:31:35;;;;;;;15.18;12.78;;;;;;;14.00;49.44;100796.07;1778196;80;21024;-68
2021/11/14 10:34:01;;;;;;;14.40;12.58;;;;;;;14.00;49.42;100786.72;1796986;78;21104;-70
2021/11/14 10:36:30;;;;;;;14.60;13.08;;;;;;;14.00;49.39;100787.55;1771758;79;21049;-68
2021/11/14 10:39:11;;;;;;;15.60;14.00;;;;;;;14.01;49.36;100787.07;1784314;79;21054;-68
2021/11/14 10:41:47;;;;;;;14.20;12.70;;;;;;;14.01;49.36;100785.23;1784951;78;20983;-69
2021/11/14 10:44:17;;;;;;;13.78;12.37;;;;;;;14.01;49.32;100777.21;1803465;78;21541;-69
2021/11/14 10:46:44;;;;;;;14.70;12.90;;;;;;;14.02;49.31;100782.05;1802734;78;22322;-69
2021/11/14 10:49:11;;;;;;;16.75;12.80;;;;;;;14.02;49.31;100786.05;1791849;79;22239;-69
2021/11/14 10:51:38;;;;;;;15.90;13.72;;;;;;;14.03;49.28;100779.72;1776691;79;21022;-68
2021/11/14 10:54:06;;;;;;;15.28;13.60;;;;;;;14.04;49.24;100786.24;1756380;80;21065;-68
2021/11/14 10:56:32;;;;;;;15.10;13.10;;;;;;;14.05;49.23;100779.05;1763261;80;22337;-69
2021/11/14 10:59:01;;;;;;;16.52;13.90;;;;;;;14.06;49.20;100770.02;1785816;80;21086;-69
2021/11/14 11:01:28;;;;;;;14.80;12.43;;;;;;;14.06;49.18;100776.22;1762327;80;21046;-68
2021/11/14 11:03:55;;;;;;;14.70;13.05;;;;;;;14.08;49.15;100776.03;1723260;80;21046;-69
2021/11/14 11:06:27;;;;;;;15.08;13.50;;;;;;;14.09;49.11;100771.04;1783004;80;21010;-69
2021/11/14 11:08:59;;;;;;;15.10;13.50;;;;;;;14.11;49.10;100764.52;1774046;80;21050;-68
2021/11/14 11:11:25;;;;;;;15.25;13.65;;;;;;;14.12;49.09;100760.86;1762336;81;21107;-69